createdAt,value
2022-10-08T00:00:12.006Z,92.76
2022-10-08T00:02:40.977Z,92.48
2022-10-08T00:05:10.217Z,92.63
2022-10-08T00:07:39.250Z,92.46
2022-10-08T00:10:08.807Z,92.65
2022-10-08T00:12:37.813Z,92.38
2022-10-08T00:15:07.219Z,92.40
2022-10-08T00:17:36.060Z,92.46
2022-10-08T00:20:05.220Z,92.17
2022-10-08T00:22:33.988Z,92.53
2022-10-08T00:25:02.772Z,92.22
2022-10-08T00:27:31.910Z,92.26
2022-10-08T00:30:00.637Z,92.43
2022-10-08T00:32:29.424Z,92.54
2022-10-08T00:34:58.432Z,92.39
2022-10-08T00:37:27.469Z,92.10
2022-10-08T00:39:56.211Z,92.34
2022-10-08T00:42:25.378Z,92.23
2022-10-08T00:45:01.614Z,92.16
2022-10-08T00:47:47.271Z,92.17
2022-10-08T00:50:35.835Z,92.06
2022-10-08T00:53:08.368Z,92.05
2022-10-08T00:55:43.590Z,91.76
2022-10-08T00:58:20.073Z,91.83
2022-10-08T01:00:50.140Z,91.70
2022-10-08T01:03:19.136Z,91.87
2022-10-08T01:06:02.586Z,92.34
2022-10-08T01:08:58.863Z,92.09
2022-10-08T01:11:36.247Z,91.82
2022-10-08T01:14:13.827Z,91.69
2022-10-08T01:17:30.988Z,91.95
2022-10-08T01:20:08.805Z,91.83
2022-10-08T01:22:44.035Z,91.38
2022-10-08T01:25:44.597Z,91.87
2022-10-08T01:28:24.358Z,91.75
2022-10-08T01:31:28.658Z,91.97
2022-10-08T01:34:02.809Z,91.40
2022-10-08T01:36:39.221Z,91.43
2022-10-08T01:39:13.210Z,91.50
2022-10-08T01:41:46.849Z,91.24
2022-10-08T01:44:24.987Z,91.31
2022-10-08T01:47:00.396Z,91.15
2022-10-08T01:49:39.863Z,90.63
2022-10-08T01:52:20.406Z,90.67
2022-10-08T01:54:52.018Z,90.90
2022-10-08T01:57:22.091Z,90.70
2022-10-08T02:00:00.860Z,90.49
2022-10-08T02:02:31.533Z,90.33
2022-10-08T02:05:00.459Z,90.53
2022-10-08T02:07:33.531Z,90.31
2022-10-08T02:10:15.007Z,90.28
2022-10-08T02:12:45.676Z,89.76
2022-10-08T02:15:33.084Z,89.98
2022-10-08T02:18:21.397Z,89.23
2022-10-08T02:21:25.080Z,88.77
2022-10-08T02:24:23.721Z,88.48
2022-10-08T02:26:57.661Z,87.73
2022-10-08T02:29:36.549Z,87.22
2022-10-08T02:32:09.065Z,87.33
2022-10-08T02:35:02.786Z,87.48
2022-10-08T02:38:02.088Z,86.83
2022-10-08T02:40:33.548Z,86.70
2022-10-08T02:43:09.195Z,85.90
2022-10-08T02:45:47.322Z,85.69
2022-10-08T02:48:24.628Z,85.16
2022-10-08T02:50:56.095Z,84.42
2022-10-08T02:53:26.386Z,84.13
2022-10-08T02:56:12.429Z,85.22
2022-10-08T02:58:43.725Z,84.04
2022-10-08T03:01:18.775Z,84.22
2022-10-08T03:03:54.254Z,84.73
2022-10-08T03:06:23.208Z,84.89
2022-10-08T03:08:53.241Z,84.16
2022-10-08T03:11:21.988Z,81.71
2022-10-08T03:13:53.453Z,81.98
2022-10-08T03:16:26.014Z,83.12
2022-10-08T03:18:59.560Z,84.37
2022-10-08T03:21:28.836Z,83.20
2022-10-08T03:23:57.561Z,77.66
2022-10-08T03:26:26.466Z,77.14
2022-10-08T03:28:55.309Z,75.05
2022-10-08T03:31:24.166Z,72.79
2022-10-08T03:33:54.454Z,71.50
2022-10-08T03:36:25.367Z,71.99
2022-10-08T03:38:54.153Z,70.76
2022-10-08T03:41:23.008Z,70.51
2022-10-08T03:43:51.846Z,66.08
2022-10-08T03:46:20.773Z,69.68
2022-10-08T03:48:50.730Z,62.42
2022-10-08T03:51:21.036Z,63.10
2022-10-08T03:53:49.971Z,62.58
2022-10-08T03:56:22.131Z,67.09
2022-10-08T03:58:57.962Z,56.35
2022-10-08T04:01:30.054Z,60.86
2022-10-08T04:03:59.039Z,60.44
2022-10-08T04:06:28.013Z,63.38
2022-10-08T04:09:01.446Z,56.51
2022-10-08T04:11:30.859Z,57.80
2022-10-08T04:14:01.314Z,59.30
2022-10-08T04:16:30.374Z,60.64
2022-10-08T04:18:59.169Z,63.90
2022-10-08T04:21:30.184Z,65.30
2022-10-08T04:23:59.060Z,62.34
2022-10-08T04:26:27.835Z,61.82
2022-10-08T04:28:56.662Z,60.20
2022-10-08T04:31:25.459Z,60.53
2022-10-08T04:33:54.311Z,54.34
2022-10-08T04:36:25.488Z,52.14
2022-10-08T04:38:54.463Z,51.13
2022-10-08T04:41:27.777Z,53.78
2022-10-08T04:44:01.656Z,51.60
2022-10-08T04:46:30.517Z,55.15
2022-10-08T04:49:00.665Z,56.50
2022-10-08T04:51:29.799Z,58.97
2022-10-08T04:53:59.121Z,60.30
2022-10-08T04:56:31.371Z,59.43
2022-10-08T04:59:00.669Z,55.61
2022-10-08T05:01:31.369Z,55.25
2022-10-08T05:04:00.385Z,54.16
2022-10-08T05:06:31.123Z,53.87
2022-10-08T05:09:04.663Z,51.96
2022-10-08T05:11:34.460Z,56.48
2022-10-08T05:14:03.447Z,54.59
2022-10-08T05:16:32.794Z,54.43
2022-10-08T05:19:01.559Z,53.05
2022-10-08T05:21:32.088Z,52.95
2022-10-08T05:24:07.285Z,55.80
2022-10-08T05:29:30.962Z,52.56
2022-10-08T05:31:59.790Z,49.35
2022-10-08T05:34:28.601Z,45.33
2022-10-08T05:36:57.502Z,48.00
2022-10-08T05:39:26.479Z,51.63
2022-10-08T05:41:55.322Z,48.78
2022-10-08T05:44:24.348Z,48.12
2022-10-08T05:46:53.184Z,44.83
2022-10-08T05:49:24.096Z,45.96
2022-10-08T05:51:52.884Z,42.28
2022-10-08T05:54:22.456Z,42.35
2022-10-08T05:56:51.743Z,41.68
2022-10-08T05:59:23.466Z,43.38
2022-10-08T06:01:53.403Z,43.47
2022-10-08T06:04:22.729Z,39.38
2022-10-08T06:06:51.579Z,40.69
2022-10-08T06:09:21.729Z,35.00
2022-10-08T06:11:51.020Z,40.79
2022-10-08T06:14:22.881Z,36.50
2022-10-08T06:16:51.813Z,34.60
2022-10-08T06:19:20.903Z,38.10
2022-10-08T06:21:50.718Z,38.44
2022-10-08T06:24:19.820Z,38.97
2022-10-08T06:26:48.587Z,36.73
2022-10-08T06:29:19.417Z,35.76
2022-10-08T06:31:48.174Z,37.35
2022-10-08T06:34:17.008Z,38.36
2022-10-08T06:36:45.817Z,38.67
2022-10-08T06:39:16.320Z,37.42
2022-10-08T06:41:45.211Z,35.74
2022-10-08T06:44:16.012Z,34.68
2022-10-08T06:46:44.886Z,37.71
2022-10-08T06:49:13.728Z,37.18
2022-10-08T06:51:42.500Z,37.38
2022-10-08T06:54:11.367Z,39.25
2022-10-08T06:56:40.315Z,36.91
2022-10-08T06:59:09.156Z,36.86
2022-10-08T07:01:38.606Z,34.46
2022-10-08T07:04:08.261Z,35.06
2022-10-08T07:06:37.056Z,36.38
2022-10-08T07:09:07.699Z,38.10
2022-10-08T07:11:36.547Z,37.86
2022-10-08T07:14:05.420Z,37.35
2022-10-08T07:16:34.268Z,37.23
2022-10-08T07:19:03.679Z,35.22
2022-10-08T07:21:32.586Z,34.03
2022-10-08T07:24:02.586Z,37.40
2022-10-08T07:26:35.666Z,38.09
2022-10-08T07:29:15.128Z,36.18
2022-10-08T07:31:44.101Z,38.18
2022-10-08T07:34:14.202Z,40.14
2022-10-08T07:36:43.306Z,41.42
2022-10-08T07:39:15.269Z,43.98
2022-10-08T07:41:44.064Z,43.32
2022-10-08T07:44:13.887Z,42.83
2022-10-08T07:46:49.004Z,43.55
2022-10-08T07:49:19.577Z,43.29
2022-10-08T07:51:48.651Z,42.95
2022-10-08T07:54:19.997Z,43.23
2022-10-08T07:56:48.985Z,43.96
2022-10-08T07:59:17.845Z,43.05
2022-10-08T08:01:47.522Z,44.01
2022-10-08T08:04:16.817Z,45.80
2022-10-08T08:06:50.518Z,43.94
2022-10-08T08:09:19.574Z,43.32
2022-10-08T08:11:49.869Z,41.51
2022-10-08T08:14:20.277Z,40.91
2022-10-08T08:16:49.430Z,38.01
2022-10-08T08:19:18.355Z,38.69
2022-10-08T08:21:47.255Z,37.41
2022-10-08T08:24:18.921Z,36.28
2022-10-08T08:26:47.766Z,37.98
2022-10-08T08:29:18.971Z,37.31
2022-10-08T08:31:49.929Z,36.74
2022-10-08T08:34:24.365Z,37.54
2022-10-08T08:36:54.342Z,36.50
2022-10-08T08:39:27.546Z,37.54
2022-10-08T08:42:17.999Z,37.17
2022-10-08T08:45:01.470Z,37.57
2022-10-08T08:47:45.771Z,39.34
2022-10-08T08:50:26.677Z,40.41
2022-10-08T08:52:56.646Z,41.88
2022-10-08T08:55:53.714Z,43.14
2022-10-08T08:58:38.020Z,42.44
2022-10-08T09:01:10.205Z,43.52
2022-10-08T09:03:59.876Z,43.25
2022-10-08T09:06:30.612Z,43.98
2022-10-08T09:09:16.644Z,44.74
2022-10-08T09:11:45.534Z,44.33
2022-10-08T09:14:15.242Z,44.52
2022-10-08T09:16:44.296Z,45.76
2022-10-08T09:19:13.381Z,45.75
2022-10-08T09:21:42.289Z,46.49
2022-10-08T09:24:12.824Z,47.08
2022-10-08T09:26:42.454Z,47.22
2022-10-08T09:29:33.103Z,46.12
2022-10-08T09:32:02.035Z,46.83
2022-10-08T09:34:32.775Z,47.73
2022-10-08T09:37:01.579Z,47.63
2022-10-08T09:39:33.075Z,48.05
2022-10-08T09:42:08.186Z,48.40
2022-10-08T09:44:41.488Z,49.18
2022-10-08T09:47:22.623Z,48.84
2022-10-08T09:50:08.526Z,48.68
2022-10-08T09:52:42.777Z,48.74
2022-10-08T09:55:17.368Z,49.32
2022-10-08T09:57:53.026Z,49.11
2022-10-08T10:00:30.255Z,49.79
2022-10-08T10:03:02.973Z,49.14
2022-10-08T10:05:37.875Z,49.98
2022-10-08T10:08:07.547Z,50.15
2022-10-08T10:10:41.405Z,50.54
2022-10-08T10:13:15.721Z,50.46
2022-10-08T10:15:53.019Z,50.46
2022-10-08T10:18:43.727Z,51.21
2022-10-08T10:21:22.562Z,51.84
2022-10-08T10:24:06.294Z,51.57
2022-10-08T10:26:43.735Z,51.26
2022-10-08T10:29:15.630Z,51.44
2022-10-08T10:31:59.217Z,52.14
2022-10-08T10:34:36.564Z,52.11
2022-10-08T10:37:21.691Z,52.10
2022-10-08T10:39:58.187Z,52.29
2022-10-08T10:42:33.651Z,52.38
2022-10-08T10:45:14.440Z,51.84
2022-10-08T10:47:43.317Z,52.10
2022-10-08T10:50:16.712Z,52.25
2022-10-08T10:53:11.097Z,52.34
2022-10-08T10:55:54.663Z,52.14
2022-10-08T10:58:37.359Z,52.57
2022-10-08T11:01:13.467Z,52.04
2022-10-08T11:03:54.880Z,51.81
2022-10-08T11:06:59.048Z,52.21
2022-10-08T11:09:41.406Z,52.18
2022-10-08T11:12:42.773Z,51.96
2022-10-08T11:15:39.241Z,52.42
2022-10-08T11:18:32.691Z,52.76
2022-10-08T11:21:10.865Z,52.64
2022-10-08T11:23:55.461Z,52.79
2022-10-08T11:26:51.833Z,53.17
2022-10-08T11:29:38.828Z,53.33
2022-10-08T11:32:17.594Z,53.81
2022-10-08T11:35:06.931Z,53.65
2022-10-08T11:37:39.894Z,54.26
2022-10-08T11:40:20.498Z,54.47
2022-10-08T11:43:02.493Z,54.29
2022-10-08T11:45:33.094Z,54.50
2022-10-08T11:48:22.492Z,55.12
2022-10-08T11:50:52.630Z,54.89
2022-10-08T11:53:22.970Z,55.63
2022-10-08T11:56:00.896Z,55.62
2022-10-08T11:58:33.803Z,55.90
2022-10-08T12:01:11.881Z,55.74
2022-10-08T12:03:43.302Z,56.23
2022-10-08T12:06:25.794Z,56.19
2022-10-08T12:09:00.641Z,56.40
2022-10-08T12:11:38.293Z,56.60
2022-10-08T12:14:16.380Z,56.21
2022-10-08T12:16:48.263Z,57.00
2022-10-08T12:19:35.737Z,57.06
2022-10-08T12:22:25.471Z,56.96
2022-10-08T12:25:04.454Z,57.45
2022-10-08T12:27:36.544Z,57.33
2022-10-08T12:30:14.431Z,57.71
2022-10-08T12:32:43.197Z,57.50
2022-10-08T12:35:30.829Z,57.70
2022-10-08T12:38:24.603Z,57.83
2022-10-08T12:41:11.527Z,58.11
2022-10-08T12:43:50.894Z,58.12
2022-10-08T12:46:46.889Z,58.35
2022-10-08T12:49:18.954Z,58.43
2022-10-08T12:52:02.021Z,58.44
2022-10-08T12:54:32.589Z,58.48
2022-10-08T12:57:11.591Z,58.74
2022-10-08T12:59:43.858Z,58.67
2022-10-08T13:02:40.747Z,59.12
2022-10-08T13:05:28.082Z,59.02
2022-10-08T13:07:57.630Z,59.09
2022-10-08T13:10:30.157Z,58.76
2022-10-08T13:13:07.840Z,59.41
2022-10-08T13:15:37.568Z,59.45
2022-10-08T13:18:22.951Z,59.80
2022-10-08T13:20:59.761Z,60.04
2022-10-08T13:23:45.608Z,60.57
2022-10-08T13:26:50.361Z,60.18
2022-10-08T13:29:22.987Z,60.38
2022-10-08T13:32:13.383Z,60.58
2022-10-08T13:34:42.097Z,60.85
2022-10-08T13:37:17.452Z,61.22
2022-10-08T13:40:01.575Z,61.40
2022-10-08T13:42:40.772Z,61.16
2022-10-08T13:45:38.516Z,61.55
2022-10-08T13:48:12.954Z,61.36
2022-10-08T13:50:46.554Z,61.54
2022-10-08T13:53:17.878Z,61.55
2022-10-08T13:55:50.093Z,61.74
2022-10-08T13:58:20.976Z,61.55
2022-10-08T14:00:50.479Z,61.91
2022-10-08T14:03:19.511Z,62.03
2022-10-08T14:05:49.373Z,62.09
2022-10-08T14:08:26.197Z,62.19
2022-10-08T14:10:58.683Z,62.30
2022-10-08T14:13:29.917Z,62.80
2022-10-08T14:16:01.095Z,62.46
2022-10-08T14:18:30.100Z,62.35
2022-10-08T14:20:58.938Z,63.11
2022-10-08T14:23:27.767Z,62.70
2022-10-08T14:25:56.586Z,62.84
2022-10-08T14:28:25.882Z,63.04
2022-10-08T14:30:55.111Z,63.39
2022-10-08T14:33:24.144Z,63.25
2022-10-08T14:35:54.309Z,63.49
2022-10-08T14:38:23.501Z,63.63
2022-10-08T14:40:52.336Z,63.82
2022-10-08T14:43:27.881Z,63.70
2022-10-08T14:46:03.501Z,63.87
2022-10-08T14:48:32.593Z,63.60
2022-10-08T14:51:03.829Z,64.00
2022-10-08T14:53:32.880Z,63.98
2022-10-08T14:56:11.990Z,64.18
2022-10-08T14:58:45.394Z,64.37
2022-10-08T15:01:15.175Z,64.49
2022-10-08T15:03:46.278Z,64.23
2022-10-08T15:06:15.305Z,64.53
2022-10-08T15:08:45.900Z,64.07
2022-10-08T15:11:15.004Z,64.31
2022-10-08T15:13:44.505Z,64.55
2022-10-08T15:16:15.111Z,64.75
2022-10-08T15:18:44.848Z,64.51
2022-10-08T15:21:13.776Z,65.13
2022-10-08T15:23:43.356Z,65.01
2022-10-08T15:26:17.976Z,64.83
2022-10-08T15:28:47.828Z,65.03
2022-10-08T15:31:19.663Z,65.08
2022-10-08T15:33:53.621Z,64.75
2022-10-08T15:36:33.026Z,65.00
2022-10-08T15:39:15.577Z,65.64
2022-10-08T15:41:50.112Z,65.56
2022-10-08T15:44:30.852Z,65.86
2022-10-08T15:47:07.825Z,65.61
2022-10-08T15:49:41.041Z,65.83
2022-10-08T15:52:28.030Z,66.10
2022-10-08T15:54:57.129Z,65.91
2022-10-08T15:57:26.275Z,66.20
2022-10-08T15:59:56.711Z,66.20
2022-10-08T16:02:26.478Z,66.44
2022-10-08T16:04:55.504Z,66.48
2022-10-08T16:07:24.415Z,66.48
2022-10-08T16:09:53.313Z,66.38
2022-10-08T16:12:24.921Z,66.87
2022-10-08T16:14:55.070Z,66.40
2022-10-08T16:17:27.776Z,66.36
2022-10-08T16:19:57.674Z,66.86
2022-10-08T16:22:26.657Z,66.62
2022-10-08T16:24:55.537Z,66.84
2022-10-08T16:27:27.506Z,66.79
2022-10-08T16:29:59.618Z,66.56
2022-10-08T16:32:28.579Z,66.33
2022-10-08T16:34:57.464Z,66.16
2022-10-08T16:37:28.268Z,66.19
2022-10-08T16:40:04.176Z,66.05
2022-10-08T16:42:33.414Z,65.80
2022-10-08T16:45:02.847Z,66.16
2022-10-08T16:47:31.755Z,65.66
2022-10-08T16:50:00.674Z,65.39
2022-10-08T16:52:30.002Z,64.83
2022-10-08T16:54:58.836Z,64.94
2022-10-08T16:57:29.365Z,65.02
2022-10-08T17:00:01.652Z,65.24
2022-10-08T17:02:34.774Z,65.04
2022-10-08T17:05:07.792Z,65.34
2022-10-08T17:07:36.842Z,64.89
2022-10-08T17:10:06.504Z,64.64
2022-10-08T17:12:35.321Z,65.16
2022-10-08T17:15:04.307Z,65.32
2022-10-08T17:17:33.281Z,64.79
2022-10-08T17:20:02.141Z,65.13
2022-10-08T17:22:31.434Z,64.92
2022-10-08T17:25:01.576Z,65.09
2022-10-08T17:27:32.336Z,65.12
2022-10-08T17:30:01.118Z,65.24
2022-10-08T17:32:32.472Z,64.60
2022-10-08T17:35:01.372Z,64.22
2022-10-08T17:37:32.240Z,64.00
2022-10-08T17:40:01.022Z,63.75
2022-10-08T17:42:31.097Z,64.18
2022-10-08T17:44:59.992Z,63.98
2022-10-08T17:47:29.416Z,63.40
2022-10-08T17:49:58.227Z,62.46
2022-10-08T17:52:27.052Z,62.28
2022-10-08T17:54:55.788Z,62.47
2022-10-08T17:57:24.527Z,62.63
2022-10-08T17:59:53.273Z,62.49
2022-10-08T18:02:25.922Z,62.08
2022-10-08T18:04:55.224Z,62.53
2022-10-08T18:07:24.012Z,62.61
2022-10-08T18:09:52.861Z,62.30
2022-10-08T18:12:21.944Z,62.41
2022-10-08T18:14:50.715Z,62.40
2022-10-08T18:17:19.470Z,62.37
2022-10-08T18:19:50.406Z,62.51
2022-10-08T18:22:22.570Z,62.20
2022-10-08T18:24:51.775Z,62.32
2022-10-08T18:27:20.997Z,62.44
2022-10-08T18:29:49.836Z,62.83
2022-10-08T18:32:18.639Z,62.71
2022-10-08T18:34:47.482Z,62.82
2022-10-08T18:37:16.627Z,62.46
2022-10-08T18:39:45.491Z,62.77
2022-10-08T18:42:14.531Z,62.35
2022-10-08T18:44:43.288Z,62.09
2022-10-08T18:47:12.119Z,62.29
2022-10-08T18:49:40.908Z,61.56
2022-10-08T18:52:09.708Z,60.91
2022-10-08T18:54:38.506Z,60.45
2022-10-08T18:57:07.333Z,60.74
2022-10-08T18:59:36.224Z,60.35
2022-10-08T19:02:05.947Z,60.06
2022-10-08T19:04:34.894Z,59.89
2022-10-08T19:07:03.842Z,60.50
2022-10-08T19:09:32.616Z,60.32
2022-10-08T19:12:01.543Z,60.55
2022-10-08T19:14:30.413Z,60.89
2022-10-08T19:17:00.780Z,60.66
2022-10-08T19:19:30.065Z,60.67
2022-10-08T19:22:02.323Z,60.46
2022-10-08T19:24:31.623Z,60.39
2022-10-08T19:27:00.395Z,60.52
2022-10-08T19:29:33.825Z,60.09
2022-10-08T19:32:02.602Z,60.12
2022-10-08T19:34:31.352Z,60.11
2022-10-08T19:37:00.138Z,60.13
2022-10-08T19:39:31.475Z,59.62
2022-10-08T19:42:00.484Z,59.69
2022-10-08T19:44:29.392Z,59.68
2022-10-08T19:46:58.306Z,59.31
2022-10-08T19:49:27.078Z,59.03
2022-10-08T19:51:55.936Z,59.33
2022-10-08T19:54:25.681Z,59.49
2022-10-08T19:56:56.491Z,58.75
2022-10-08T19:59:25.299Z,58.96
2022-10-08T20:01:55.057Z,59.42
2022-10-08T20:04:24.579Z,59.60
2022-10-08T20:06:53.991Z,59.22
2022-10-08T20:09:22.839Z,59.19
2022-10-08T20:11:51.816Z,58.87
2022-10-08T20:14:20.580Z,58.25
2022-10-08T20:16:49.565Z,58.31
2022-10-08T20:19:21.150Z,58.20
2022-10-08T20:21:51.512Z,58.78
2022-10-08T20:24:20.801Z,58.58
2022-10-08T20:26:50.667Z,58.58
2022-10-08T20:29:22.058Z,58.50
2022-10-08T20:31:55.517Z,58.47
2022-10-08T20:34:29.326Z,58.33
2022-10-08T20:37:00.320Z,58.88
2022-10-08T20:39:29.667Z,58.23
2022-10-08T20:42:00.095Z,58.65
2022-10-08T20:44:28.830Z,58.16
2022-10-08T20:46:57.710Z,58.35
2022-10-08T20:49:26.640Z,58.03
2022-10-08T20:51:55.401Z,57.83
2022-10-08T20:54:24.332Z,58.25
2022-10-08T20:56:53.167Z,58.73
2022-10-08T20:59:22.100Z,58.49
2022-10-08T21:01:52.432Z,58.06
2022-10-08T21:04:21.763Z,57.85
2022-10-08T21:06:51.909Z,58.28
2022-10-08T21:09:22.678Z,58.10
2022-10-08T21:11:51.501Z,58.71
2022-10-08T21:14:23.068Z,58.71
2022-10-08T21:16:52.105Z,58.58
2022-10-08T21:19:24.133Z,58.94
2022-10-08T21:21:53.236Z,58.49
2022-10-08T21:24:22.017Z,58.27
2022-10-08T21:26:50.788Z,58.88
2022-10-08T21:29:19.999Z,58.87
2022-10-08T21:31:48.857Z,58.89
2022-10-08T21:34:17.919Z,59.02
2022-10-08T21:36:46.888Z,58.65
2022-10-08T21:39:17.929Z,58.26
2022-10-08T21:41:47.498Z,57.99
2022-10-08T21:44:16.349Z,58.00
2022-10-08T21:46:45.744Z,58.13
2022-10-08T21:49:23.213Z,58.13
2022-10-08T21:51:52.904Z,57.98
2022-10-08T21:54:21.732Z,58.08
2022-10-08T21:56:50.708Z,58.09
2022-10-08T21:59:19.498Z,57.99
2022-10-08T22:01:50.989Z,57.97
2022-10-08T22:04:25.227Z,58.09
2022-10-08T22:06:58.307Z,58.21
2022-10-08T22:09:30.146Z,57.69
2022-10-08T22:11:59.989Z,57.61
2022-10-08T22:14:29.613Z,57.44
2022-10-08T22:16:58.657Z,57.46
2022-10-08T22:19:27.511Z,57.71
2022-10-08T22:21:56.398Z,57.75
2022-10-08T22:24:25.264Z,57.18
2022-10-08T22:26:54.130Z,57.74
2022-10-08T22:29:23.055Z,57.45
2022-10-08T22:31:51.916Z,57.33
2022-10-08T22:34:20.735Z,57.33
2022-10-08T22:36:51.466Z,57.58
2022-10-08T22:39:20.213Z,57.74
2022-10-08T22:41:48.948Z,58.06
2022-10-08T22:44:17.715Z,58.38
2022-10-08T22:46:46.491Z,58.16
2022-10-08T22:49:18.166Z,57.96
2022-10-08T22:51:46.968Z,58.23
2022-10-08T22:54:15.779Z,58.17
2022-10-08T22:56:44.537Z,58.20
2022-10-08T22:59:13.578Z,57.55
2022-10-08T23:01:42.837Z,57.55
2022-10-08T23:04:11.782Z,56.92
2022-10-08T23:06:40.623Z,57.76
2022-10-08T23:09:13.126Z,57.61
2022-10-08T23:11:41.929Z,57.15
2022-10-08T23:14:11.389Z,57.43
2022-10-08T23:16:40.176Z,57.50
2022-10-08T23:19:34.044Z,57.43
2022-10-08T23:22:02.835Z,57.61
2022-10-08T23:24:31.646Z,57.76
2022-10-08T23:27:00.557Z,57.38
2022-10-08T23:29:29.431Z,57.50
2022-10-08T23:31:58.248Z,57.24
2022-10-08T23:34:27.093Z,57.62
2022-10-08T23:36:55.857Z,57.92
2022-10-08T23:39:24.689Z,57.83
2022-10-08T23:41:53.468Z,58.19
2022-10-08T23:44:22.633Z,57.75
2022-10-08T23:46:51.389Z,57.94
2022-10-08T23:49:20.260Z,57.76
2022-10-08T23:51:48.998Z,57.80
2022-10-08T23:54:17.729Z,58.14
2022-10-08T23:56:46.551Z,57.58
2022-10-08T23:59:15.329Z,57.49
